createdAt,value
2023-03-25T00:02:25.114Z,6.03
2023-03-25T00:04:54.583Z,7.50
2023-03-25T00:07:23.332Z,6.65
2023-03-25T00:09:51.421Z,7.00
2023-03-25T00:12:19.893Z,7.13
2023-03-25T00:14:54.471Z,5.97
2023-03-25T00:17:26.472Z,6.32
2023-03-25T00:19:55.486Z,6.18
2023-03-25T00:22:24.098Z,9.13
2023-03-25T00:24:52.018Z,5.18
2023-03-25T00:27:20.325Z,8.23
2023-03-25T00:29:48.342Z,8.20
2023-03-25T00:32:17.471Z,5.97
2023-03-25T00:34:48.071Z,6.32
2023-03-25T00:37:18.175Z,6.67
2023-03-25T00:39:46.173Z,7.05
2023-03-25T00:42:17.146Z,6.55
2023-03-25T00:44:45.168Z,6.20
2023-03-25T00:47:18.186Z,7.00
2023-03-25T00:49:47.409Z,6.00
2023-03-25T00:52:15.858Z,5.10
2023-03-25T00:54:45.715Z,5.22
2023-03-25T00:57:13.788Z,6.53
2023-03-25T00:59:41.778Z,6.18
2023-03-25T01:02:10.293Z,5.22
2023-03-25T01:04:41.572Z,6.47
2023-03-25T01:07:12.540Z,5.05
2023-03-25T01:09:41.581Z,3.63
2023-03-25T01:12:09.987Z,4.32
2023-03-25T01:14:37.871Z,4.82
2023-03-25T01:17:05.886Z,4.50
2023-03-25T01:19:33.869Z,5.70
2023-03-25T01:22:01.815Z,4.82
2023-03-25T01:24:31.388Z,5.90
2023-03-25T01:26:59.610Z,4.65
2023-03-25T01:29:29.570Z,4.22
2023-03-25T01:31:58.970Z,5.10
2023-03-25T01:34:27.269Z,2.88
2023-03-25T01:36:56.312Z,3.85
2023-03-25T01:39:24.439Z,4.43
2023-03-25T01:41:55.405Z,3.30
2023-03-25T01:45:01.456Z,3.75
2023-03-25T01:47:30.106Z,4.10
2023-03-25T01:49:58.039Z,4.30
2023-03-25T01:52:29.581Z,4.18
2023-03-25T01:54:59.702Z,4.97
2023-03-25T01:57:31.372Z,4.75
2023-03-25T01:59:59.453Z,3.38
2023-03-25T02:02:34.894Z,3.50
2023-03-25T02:05:10.500Z,5.30
2023-03-25T02:07:42.477Z,5.43
2023-03-25T02:10:12.505Z,4.13
2023-03-25T02:12:42.696Z,3.97
2023-03-25T02:15:11.997Z,3.63
2023-03-25T02:18:11.053Z,4.17
2023-03-25T02:21:08.309Z,3.40
2023-03-25T02:24:08.249Z,3.77
2023-03-25T02:27:14.024Z,5.20
2023-03-25T02:30:21.922Z,4.23
2023-03-25T02:33:13.380Z,3.63
2023-03-25T02:36:00.688Z,5.18
2023-03-25T02:38:40.457Z,5.32
2023-03-25T02:41:14.958Z,4.93
2023-03-25T02:43:46.964Z,7.38
2023-03-25T02:46:18.152Z,3.55
2023-03-25T02:48:54.676Z,6.60
2023-03-25T02:51:26.916Z,6.70
2023-03-25T02:54:01.759Z,5.90
2023-03-25T02:56:32.756Z,4.73
2023-03-25T02:59:01.847Z,5.85
2023-03-25T03:01:29.913Z,5.97
2023-03-25T03:03:57.974Z,6.33
2023-03-25T03:06:26.308Z,5.50
2023-03-25T03:09:16.249Z,5.82
2023-03-25T03:11:51.478Z,8.07
2023-03-25T03:14:31.690Z,4.32
2023-03-25T03:17:08.691Z,5.43
2023-03-25T03:19:41.334Z,6.22
2023-03-25T03:22:20.664Z,4.93
2023-03-25T03:24:53.627Z,4.43
2023-03-25T03:27:33.809Z,6.25
2023-03-25T03:30:07.715Z,8.68
2023-03-25T03:32:43.290Z,5.32
2023-03-25T03:35:17.780Z,6.43
2023-03-25T03:37:52.444Z,5.30
2023-03-25T03:40:25.661Z,8.35
2023-03-25T03:42:57.917Z,7.40
2023-03-25T03:45:30.525Z,5.57
2023-03-25T03:48:01.554Z,6.97
2023-03-25T03:50:32.623Z,7.97
2023-03-25T03:53:06.964Z,7.03
2023-03-25T03:55:40.918Z,8.30
2023-03-25T03:58:15.193Z,8.50
2023-03-25T04:00:50.690Z,7.75
2023-03-25T04:03:24.607Z,7.18
2023-03-25T04:05:58.701Z,8.80
2023-03-25T04:08:30.771Z,7.37
2023-03-25T04:11:08.944Z,4.57
2023-03-25T04:13:40.441Z,4.83
2023-03-25T04:16:09.092Z,4.73
2023-03-25T04:18:37.121Z,5.97
2023-03-25T04:21:05.606Z,7.53
2023-03-25T04:23:34.768Z,3.83
2023-03-25T04:26:04.456Z,4.60
2023-03-25T04:28:32.724Z,6.40
2023-03-25T04:31:07.327Z,5.57
2023-03-25T04:33:35.977Z,6.23
2023-03-25T04:36:03.996Z,8.53
2023-03-25T04:38:31.929Z,7.60
2023-03-25T04:41:00.407Z,7.30
2023-03-25T04:43:29.648Z,7.47
2023-03-25T04:45:57.563Z,7.70
2023-03-25T04:48:29.941Z,7.30
2023-03-25T04:50:59.012Z,5.30
2023-03-25T04:53:27.341Z,7.23
2023-03-25T04:55:55.597Z,6.07
2023-03-25T04:58:23.768Z,10.10
2023-03-25T05:00:53.960Z,5.27
2023-03-25T05:03:24.209Z,5.10
2023-03-25T05:05:52.720Z,8.70
2023-03-25T05:08:22.378Z,7.83
2023-03-25T05:10:50.846Z,6.10
2023-03-25T05:13:18.703Z,5.23
2023-03-25T05:15:46.600Z,4.63
2023-03-25T05:18:17.219Z,5.73
2023-03-25T05:20:50.656Z,4.00
2023-03-25T05:23:18.764Z,3.83
2023-03-25T05:25:47.389Z,6.57
2023-03-25T05:28:15.951Z,4.60
2023-03-25T05:30:45.970Z,6.37
2023-03-25T05:33:17.311Z,7.03
2023-03-25T05:35:45.861Z,9.03
2023-03-25T05:38:18.685Z,5.17
2023-03-25T05:40:47.626Z,6.93
2023-03-25T05:43:16.376Z,5.63
2023-03-25T05:45:46.935Z,6.00
2023-03-25T05:48:16.226Z,6.30
2023-03-25T05:50:44.173Z,6.87
2023-03-25T05:53:13.385Z,6.93
2023-03-25T05:55:41.300Z,5.90
2023-03-25T05:58:09.181Z,8.30
2023-03-25T06:00:55.640Z,4.67
2023-03-25T06:03:26.257Z,8.03
2023-03-25T06:05:54.550Z,5.00
2023-03-25T06:08:26.196Z,6.27
2023-03-25T06:10:58.260Z,6.57
2023-03-25T06:13:26.380Z,4.70
2023-03-25T06:15:56.171Z,6.93
2023-03-25T06:18:25.709Z,6.83
2023-03-25T06:20:57.677Z,7.67
2023-03-25T06:23:26.392Z,9.37
2023-03-25T06:25:54.899Z,6.20
2023-03-25T06:28:23.783Z,6.30
2023-03-25T06:30:51.793Z,7.53
2023-03-25T06:33:43.421Z,9.73
2023-03-25T06:36:11.347Z,11.60
2023-03-25T06:38:39.813Z,6.50
2023-03-25T06:41:11.330Z,6.40
2023-03-25T06:43:39.875Z,7.70
2023-03-25T06:46:08.070Z,8.33
2023-03-25T06:48:54.784Z,7.57
2023-03-25T06:51:24.123Z,9.27
2023-03-25T06:53:52.161Z,7.53
2023-03-25T06:56:20.248Z,9.40
2023-03-25T06:58:48.373Z,4.50
2023-03-25T07:01:17.036Z,8.73
2023-03-25T07:03:45.219Z,8.77
2023-03-25T07:06:18.834Z,9.07
2023-03-25T07:08:48.713Z,10.43
2023-03-25T07:11:20.551Z,9.83
2023-03-25T07:13:48.697Z,9.60
2023-03-25T07:16:16.937Z,7.43
2023-03-25T07:18:45.275Z,6.13
2023-03-25T07:21:13.531Z,9.57
2023-03-25T07:23:41.632Z,7.90
2023-03-25T07:26:11.193Z,7.27
2023-03-25T07:28:40.542Z,11.43
2023-03-25T07:31:09.396Z,8.93
2023-03-25T07:33:38.279Z,8.23
2023-03-25T07:36:07.825Z,12.33
2023-03-25T07:38:36.888Z,12.83
2023-03-25T07:41:07.459Z,10.00
2023-03-25T07:43:36.990Z,9.93
2023-03-25T07:46:27.518Z,13.00
2023-03-25T07:48:55.867Z,8.93
2023-03-25T07:51:24.019Z,11.73
2023-03-25T07:53:52.145Z,12.10
2023-03-25T07:56:20.460Z,8.53
2023-03-25T07:58:49.951Z,10.73
2023-03-25T08:01:18.082Z,10.03
2023-03-25T08:03:46.224Z,11.07
2023-03-25T08:06:14.404Z,7.90
2023-03-25T08:08:42.704Z,8.53
2023-03-25T08:11:11.297Z,7.80
2023-03-25T08:13:39.536Z,8.73
2023-03-25T08:16:13.453Z,13.57
2023-03-25T08:18:45.331Z,9.20
2023-03-25T08:21:14.322Z,7.93
2023-03-25T08:23:44.520Z,11.93
2023-03-25T08:26:12.765Z,11.17
2023-03-25T08:28:40.978Z,14.07
2023-03-25T08:31:09.506Z,13.43
2023-03-25T08:33:41.191Z,13.33
2023-03-25T08:36:13.996Z,11.87
2023-03-25T08:38:42.475Z,12.77
2023-03-25T08:41:10.553Z,10.00
2023-03-25T08:43:38.701Z,10.37
2023-03-25T08:46:06.915Z,10.07
2023-03-25T08:48:35.079Z,9.43
2023-03-25T08:51:06.090Z,15.20
2023-03-25T08:53:34.506Z,13.70
2023-03-25T08:56:03.278Z,11.67
2023-03-25T08:58:31.478Z,15.48
2023-03-25T09:00:59.583Z,11.97
2023-03-25T09:03:28.114Z,14.53
2023-03-25T09:05:56.309Z,9.53
2023-03-25T09:08:25.882Z,13.13
2023-03-25T09:10:56.274Z,15.97
2023-03-25T09:13:24.373Z,12.90
2023-03-25T09:15:52.770Z,13.10
2023-03-25T09:18:21.143Z,12.80
2023-03-25T09:20:49.417Z,11.73
2023-03-25T09:23:17.685Z,9.17
2023-03-25T09:25:47.233Z,13.47
2023-03-25T09:28:15.371Z,10.57
2023-03-25T09:30:43.457Z,10.20
2023-03-25T09:33:12.191Z,12.33
2023-03-25T09:35:41.286Z,10.73
2023-03-25T09:38:09.521Z,8.97
2023-03-25T09:40:38.954Z,10.53
2023-03-25T09:43:32.873Z,9.77
2023-03-25T09:46:01.752Z,9.95
2023-03-25T09:48:35.228Z,6.90
2023-03-25T09:51:06.118Z,7.97
2023-03-25T09:53:39.244Z,10.50
2023-03-25T09:56:12.390Z,8.43
2023-03-25T09:58:45.559Z,9.57
2023-03-25T10:01:27.203Z,9.90
2023-03-25T10:04:10.474Z,10.90
2023-03-25T10:06:44.512Z,8.47
2023-03-25T10:09:31.328Z,11.07
2023-03-25T10:12:06.782Z,11.47
2023-03-25T10:14:44.792Z,10.70
2023-03-25T10:17:22.806Z,15.18
2023-03-25T10:19:59.195Z,13.52
2023-03-25T10:22:31.033Z,13.65
2023-03-25T10:25:01.896Z,12.48
2023-03-25T10:27:35.632Z,14.02
2023-03-25T10:30:14.144Z,12.85
2023-03-25T10:32:44.993Z,14.10
2023-03-25T10:35:17.560Z,12.95
2023-03-25T10:37:47.723Z,11.38
2023-03-25T10:40:21.905Z,15.65
2023-03-25T10:43:00.920Z,11.95
2023-03-25T10:45:30.381Z,14.27
2023-03-25T10:48:07.640Z,12.90
2023-03-25T10:50:35.728Z,14.18
2023-03-25T10:53:22.263Z,9.27
2023-03-25T10:55:53.673Z,12.60
2023-03-25T10:58:21.763Z,12.23
2023-03-25T11:00:51.071Z,13.63
2023-03-25T11:03:22.137Z,11.82
2023-03-25T11:05:50.440Z,11.70
2023-03-25T11:08:24.416Z,12.35
2023-03-25T11:10:57.102Z,10.32
2023-03-25T11:13:26.863Z,10.35
2023-03-25T11:15:59.591Z,8.05
2023-03-25T11:18:31.004Z,11.43
2023-03-25T11:21:03.642Z,10.75
2023-03-25T11:23:34.558Z,7.75
2023-03-25T11:26:07.634Z,8.65
2023-03-25T11:28:41.833Z,12.13
2023-03-25T11:31:22.213Z,10.90
2023-03-25T11:34:06.759Z,11.35
2023-03-25T11:36:37.687Z,13.02
2023-03-25T11:39:17.137Z,10.57
2023-03-25T11:41:46.992Z,9.95
2023-03-25T11:44:24.248Z,8.90
2023-03-25T11:46:57.418Z,11.40
2023-03-25T11:49:27.040Z,12.23
2023-03-25T11:52:01.077Z,10.77
2023-03-25T11:54:29.604Z,9.90
2023-03-25T11:56:57.984Z,10.85
2023-03-25T11:59:27.925Z,7.85
2023-03-25T12:02:04.615Z,6.57
2023-03-25T12:04:32.544Z,6.13
2023-03-25T12:07:08.422Z,5.07
2023-03-25T12:09:36.863Z,7.80
2023-03-25T12:12:27.589Z,6.35
2023-03-25T12:15:06.771Z,6.45
2023-03-25T12:17:51.752Z,9.75
2023-03-25T12:20:28.070Z,9.48
2023-03-25T12:23:05.007Z,11.70
2023-03-25T12:25:40.303Z,7.15
2023-03-25T12:28:39.168Z,9.18
2023-03-25T12:31:13.505Z,11.23
2023-03-25T12:33:58.031Z,7.50
2023-03-25T12:36:40.201Z,5.67
2023-03-25T12:39:35.713Z,9.90
2023-03-25T12:42:25.935Z,3.40
2023-03-25T12:45:07.374Z,5.95
2023-03-25T12:47:39.065Z,4.10
2023-03-25T12:50:28.288Z,4.50
2023-03-25T12:53:01.040Z,5.17
2023-03-25T12:56:00.298Z,5.57
2023-03-25T12:58:55.825Z,5.43
2023-03-25T13:01:29.378Z,4.23
2023-03-25T13:04:21.082Z,4.53
2023-03-25T13:07:00.105Z,3.73
2023-03-25T13:09:32.880Z,5.80
2023-03-25T13:12:04.539Z,5.87
2023-03-25T13:14:37.260Z,9.47
2023-03-25T13:17:09.090Z,7.47
2023-03-25T13:19:42.572Z,8.63
2023-03-25T13:22:19.862Z,5.83
2023-03-25T13:24:52.279Z,7.23
2023-03-25T13:27:20.804Z,2.93
2023-03-25T13:29:52.839Z,4.70
2023-03-25T13:32:26.450Z,3.90
2023-03-25T13:34:58.195Z,8.00
2023-03-25T13:37:33.823Z,6.63
2023-03-25T13:40:14.885Z,5.90
2023-03-25T13:42:50.888Z,6.97
2023-03-25T13:45:20.803Z,8.03
2023-03-25T13:47:54.438Z,8.13
2023-03-25T13:50:27.888Z,9.00
2023-03-25T13:53:01.215Z,7.87
2023-03-25T13:55:35.982Z,6.97
2023-03-25T13:58:22.990Z,12.37
2023-03-25T14:01:25.428Z,6.70
2023-03-25T14:04:26.184Z,6.80
2023-03-25T14:07:23.442Z,10.17
2023-03-25T14:10:24.500Z,11.83
2023-03-25T14:12:56.387Z,5.80
2023-03-25T14:15:30.006Z,12.37
2023-03-25T14:17:58.505Z,12.03
2023-03-25T14:20:30.608Z,10.07
2023-03-25T14:23:00.301Z,10.57
2023-03-25T14:25:37.479Z,8.37
2023-03-25T14:28:06.780Z,9.40
2023-03-25T14:30:35.678Z,12.60
2023-03-25T14:33:04.544Z,9.70
2023-03-25T14:35:59.467Z,10.27
2023-03-25T14:38:52.504Z,16.17
2023-03-25T14:41:57.359Z,12.17
2023-03-25T14:44:29.057Z,13.03
2023-03-25T14:47:29.800Z,7.83
2023-03-25T14:50:05.242Z,11.30
2023-03-25T14:52:38.782Z,11.43
2023-03-25T14:55:12.087Z,12.80
2023-03-25T14:57:44.240Z,10.10
2023-03-25T15:00:22.648Z,11.50
2023-03-25T15:02:53.657Z,10.87
2023-03-25T15:05:25.615Z,10.13
2023-03-25T15:07:58.993Z,11.13
2023-03-25T15:10:30.259Z,10.33
2023-03-25T15:13:04.511Z,10.97
2023-03-25T15:15:34.849Z,9.33
2023-03-25T15:18:03.689Z,12.70
2023-03-25T15:20:38.425Z,12.37
2023-03-25T15:23:33.257Z,10.07
2023-03-25T15:26:02.936Z,7.90
2023-03-25T15:28:47.379Z,11.87
2023-03-25T15:31:26.247Z,12.77
2023-03-25T15:34:10.387Z,7.83
2023-03-25T15:36:50.382Z,11.03
2023-03-25T15:39:35.659Z,15.40
2023-03-25T15:42:33.658Z,9.03
2023-03-25T15:45:37.565Z,10.57
2023-03-25T15:48:22.281Z,11.50
2023-03-25T15:51:14.616Z,9.73
2023-03-25T15:54:09.037Z,8.00
2023-03-25T15:56:41.759Z,14.37
2023-03-25T15:59:30.050Z,10.07
2023-03-25T16:02:01.293Z,10.60
2023-03-25T16:04:38.707Z,8.53
2023-03-25T16:07:08.996Z,6.27
2023-03-25T16:09:41.739Z,5.73
2023-03-25T16:12:11.008Z,6.93
2023-03-25T16:14:39.641Z,9.23
2023-03-25T16:17:09.316Z,5.83
2023-03-25T16:19:42.174Z,9.03
2023-03-25T16:22:18.029Z,7.60
2023-03-25T16:24:48.373Z,8.60
2023-03-25T16:27:23.593Z,9.83
2023-03-25T16:29:53.739Z,7.37
2023-03-25T16:32:23.986Z,5.63
2023-03-25T16:34:54.135Z,6.87
2023-03-25T16:37:25.332Z,8.63
2023-03-25T16:39:54.457Z,8.47
2023-03-25T16:42:27.874Z,10.53
2023-03-25T16:44:56.305Z,12.00
2023-03-25T16:47:24.594Z,6.27
2023-03-25T16:49:56.657Z,9.23
2023-03-25T16:52:27.416Z,9.07
2023-03-25T16:55:15.342Z,7.73
2023-03-25T16:57:43.323Z,7.07
2023-03-25T17:00:20.383Z,6.83
2023-03-25T17:02:49.940Z,9.50
2023-03-25T17:05:22.421Z,7.77
2023-03-25T17:07:57.374Z,7.27
2023-03-25T17:10:27.963Z,8.63
2023-03-25T17:12:59.035Z,8.13
2023-03-25T17:15:28.250Z,9.93
2023-03-25T17:18:01.234Z,7.57
2023-03-25T17:20:35.917Z,9.17
2023-03-25T17:23:08.377Z,8.40
2023-03-25T17:25:37.881Z,9.87
2023-03-25T17:28:19.796Z,10.07
2023-03-25T17:30:47.829Z,9.50
2023-03-25T17:33:20.352Z,12.32
2023-03-25T17:35:55.430Z,10.52
2023-03-25T17:38:27.721Z,12.87
2023-03-25T17:41:00.827Z,10.63
2023-03-25T17:43:32.028Z,12.00
2023-03-25T17:46:01.518Z,11.87
2023-03-25T17:48:29.504Z,13.93
2023-03-25T17:51:00.256Z,8.33
2023-03-25T17:53:29.115Z,13.57
2023-03-25T17:55:59.100Z,11.90
2023-03-25T17:58:27.230Z,9.87
2023-03-25T18:00:55.178Z,10.63
2023-03-25T18:03:25.262Z,13.53
2023-03-25T18:05:54.379Z,9.20
2023-03-25T18:08:25.553Z,10.83
2023-03-25T18:10:54.692Z,11.80
2023-03-25T18:13:24.049Z,11.43
2023-03-25T18:15:52.727Z,12.32
2023-03-25T18:18:24.050Z,14.65
2023-03-25T18:20:53.260Z,14.88
2023-03-25T18:23:23.148Z,12.25
2023-03-25T18:25:51.196Z,14.47
2023-03-25T18:28:19.097Z,12.80
2023-03-25T18:30:50.921Z,12.60
2023-03-25T18:33:37.974Z,12.52
2023-03-25T18:36:06.756Z,15.73
2023-03-25T18:38:36.141Z,19.33
2023-03-25T18:41:04.920Z,15.35
2023-03-25T18:43:32.845Z,15.05
2023-03-25T18:46:00.886Z,14.48
2023-03-25T18:48:28.883Z,15.50
2023-03-25T18:50:58.167Z,16.75
2023-03-25T18:53:28.346Z,14.30
2023-03-25T18:56:00.789Z,13.57
2023-03-25T18:58:30.843Z,14.50
2023-03-25T19:01:00.227Z,14.77
2023-03-25T19:03:31.781Z,13.65
2023-03-25T19:06:01.224Z,15.20
2023-03-25T19:08:29.588Z,14.48
2023-03-25T19:11:08.167Z,15.50
2023-03-25T19:13:44.799Z,14.32
2023-03-25T19:16:12.757Z,11.75
2023-03-25T19:18:40.782Z,14.18
2023-03-25T19:21:08.764Z,12.68
2023-03-25T19:23:36.749Z,14.23
2023-03-25T19:26:06.609Z,14.35
2023-03-25T19:28:34.471Z,14.80
2023-03-25T19:31:03.250Z,13.63
2023-03-25T19:33:32.024Z,14.40
2023-03-25T19:36:03.692Z,17.75
2023-03-25T19:38:32.868Z,12.57
2023-03-25T19:41:07.941Z,14.75
2023-03-25T19:43:36.381Z,15.93
2023-03-25T19:46:05.314Z,17.55
2023-03-25T19:48:33.564Z,17.42
2023-03-25T19:51:01.525Z,17.87
2023-03-25T19:53:30.002Z,17.30
2023-03-25T19:56:02.027Z,15.90
2023-03-25T19:58:31.300Z,16.65
2023-03-25T20:00:59.219Z,14.90
2023-03-25T20:03:31.158Z,18.00
2023-03-25T20:06:01.496Z,16.25
2023-03-25T20:08:30.289Z,15.13
2023-03-25T20:10:58.321Z,16.00
2023-03-25T20:13:26.526Z,17.80
2023-03-25T20:15:56.117Z,15.82
2023-03-25T20:18:24.177Z,19.30
2023-03-25T20:20:52.047Z,19.05
2023-03-25T20:23:20.223Z,19.25
2023-03-25T20:25:48.145Z,22.38
2023-03-25T20:28:18.334Z,19.67
2023-03-25T20:30:46.397Z,19.40
2023-03-25T20:33:15.727Z,21.13
2023-03-25T20:35:44.314Z,19.25
2023-03-25T20:38:14.074Z,16.45
2023-03-25T20:40:45.008Z,20.13
2023-03-25T20:43:14.328Z,21.60
2023-03-25T20:45:43.475Z,22.70
2023-03-25T20:48:11.530Z,26.27
2023-03-25T20:50:40.822Z,31.10
2023-03-25T20:53:08.713Z,24.05
2023-03-25T20:55:37.146Z,11.50
2023-03-25T20:58:05.728Z,3.87
2023-03-25T21:00:34.194Z,3.90
2023-03-25T21:03:03.084Z,3.20
2023-03-25T21:05:31.274Z,3.47
2023-03-25T21:08:00.524Z,2.58
2023-03-25T21:10:28.491Z,2.63
2023-03-25T21:12:56.480Z,3.47
2023-03-25T21:15:24.407Z,3.45
2023-03-25T21:17:52.291Z,3.70
2023-03-25T21:20:23.724Z,4.10
2023-03-25T21:22:52.819Z,4.97
2023-03-25T21:25:22.061Z,5.73
2023-03-25T21:27:50.039Z,5.65
2023-03-25T21:30:18.114Z,6.88
2023-03-25T21:32:45.995Z,7.87
2023-03-25T21:35:13.919Z,7.03
2023-03-25T21:37:41.792Z,11.37
2023-03-25T21:40:12.065Z,19.92
2023-03-25T21:42:42.241Z,21.25
2023-03-25T21:45:11.956Z,22.43
2023-03-25T21:47:41.304Z,22.25
2023-03-25T21:50:11.819Z,23.48
2023-03-25T21:52:43.349Z,23.45
2023-03-25T21:55:12.554Z,28.00
2023-03-25T21:57:44.491Z,25.00
2023-03-25T22:00:16.791Z,27.48
2023-03-25T22:02:46.462Z,26.52
2023-03-25T22:05:16.084Z,24.63
2023-03-25T22:07:44.062Z,26.85
2023-03-25T22:10:12.739Z,25.58
2023-03-25T22:12:42.076Z,30.13
2023-03-25T22:15:11.618Z,30.08
2023-03-25T22:17:39.596Z,28.40
2023-03-25T22:20:10.132Z,26.40
2023-03-25T22:22:38.211Z,28.33
2023-03-25T22:25:07.291Z,23.48
2023-03-25T22:27:35.896Z,24.83
2023-03-25T22:30:06.310Z,23.83
2023-03-25T22:32:35.320Z,28.65
2023-03-25T22:35:03.865Z,27.88
2023-03-25T22:37:31.997Z,26.83
2023-03-25T22:39:59.932Z,26.75
2023-03-25T22:42:29.475Z,28.15
2023-03-25T22:44:57.350Z,25.55
2023-03-25T22:47:26.621Z,27.48
2023-03-25T22:49:54.556Z,27.10
2023-03-25T22:52:22.422Z,26.42
2023-03-25T22:54:50.381Z,24.27
2023-03-25T22:57:19.142Z,28.10
2023-03-25T22:59:47.055Z,29.95
2023-03-25T23:02:16.576Z,27.05
2023-03-25T23:04:46.201Z,26.88
2023-03-25T23:07:14.734Z,22.73
2023-03-25T23:09:44.010Z,28.95
2023-03-25T23:12:13.797Z,23.27
2023-03-25T23:14:44.538Z,23.05
2023-03-25T23:17:12.595Z,26.42
2023-03-25T23:19:41.324Z,26.05
2023-03-25T23:22:10.702Z,24.95
2023-03-25T23:24:39.532Z,22.20
2023-03-25T23:27:09.360Z,22.08
2023-03-25T23:29:39.064Z,28.40
2023-03-25T23:32:08.231Z,29.10
2023-03-25T23:34:38.240Z,26.05
2023-03-25T23:37:09.128Z,26.15
2023-03-25T23:39:40.210Z,24.73
2023-03-25T23:42:08.118Z,26.63
2023-03-25T23:44:36.216Z,24.08
2023-03-25T23:47:04.681Z,24.90
2023-03-25T23:49:33.922Z,26.63
2023-03-25T23:52:02.213Z,22.95
2023-03-25T23:54:30.076Z,24.40
2023-03-25T23:56:59.551Z,26.53
2023-03-25T23:59:27.573Z,26.50
